Terminal Aerodrome Forecast
Issued by NWS

Home | Current Version | Previous Version | Text Only | Print | Product List | Glossary On
Versions: 1 2 3 4 5 6 7 8 9 10 11 12 13 14 15 16 17 18
000
FTUS41 KBGM 272328
TAFITH
TAF
KITH 272328Z 2800/2824 33008KT P6SM SCT015 OVC025
      TEMPO 2800/2804 -SHRA OVC015
     FM280400 33008KT P6SM OVC015
     FM281400 32012G22KT P6SM BKN035=

USA.gov is the U.S. government's official web portal to all federal, state and local government web resources and services.